Isle Of Wight, Virginia
Current Conditions -  °F | °C
As of 4:58 PM on Monday 20 Oct 2014 (Local Time) from KFAF Reporting Station
Clear Clear  
Wind Chill: 67°   Ceiling: Unl
Heat Index: 67°   Visibility: 10mi
Dew Point: 45°   Wind: 6mph
Humidity: 46%   Direction: 180°S
Pressure: 29.98"   Gusts: NA
Location:  36.91°N, 76.71°W
Report Text: KFAF 202058Z AUTO 18005KT 10SM CLR 19/07 A2998 RMK AO2 SLP155 T01930073 57022 $
Loading
Personal Weather Stations






























Interactive Weather Map
Tropical Storm Tracking
New forecast layout! Learn more

10-Day Weather Forecast

Advertisements
Track Severe Weather on mobile